createdAt,value
2019-01-12T00:00:58.031Z,23.73
2019-01-12T00:03:27.533Z,24.73
2019-01-12T00:05:56.968Z,23.27
2019-01-12T00:08:26.466Z,24.10
2019-01-12T00:10:55.910Z,23.07
2019-01-12T00:13:25.456Z,25.87
2019-01-12T00:15:57.120Z,24.40
2019-01-12T00:18:26.642Z,23.00
2019-01-12T00:20:56.189Z,23.87
2019-01-12T00:23:25.701Z,22.67
2019-01-12T00:25:55.123Z,21.00
2019-01-12T00:28:24.544Z,21.20
2019-01-12T00:30:53.987Z,19.17
2019-01-12T00:33:23.493Z,19.87
2019-01-12T00:35:52.923Z,18.63
2019-01-12T00:38:22.345Z,19.20
2019-01-12T00:40:51.844Z,19.43
2019-01-12T00:43:21.284Z,18.77
2019-01-12T00:45:55.654Z,20.07
2019-01-12T00:48:25.162Z,18.20
2019-01-12T00:50:54.564Z,19.90
2019-01-12T00:53:23.986Z,21.00
2019-01-12T00:55:58.118Z,18.17
2019-01-12T00:58:27.848Z,20.03
2019-01-12T01:00:57.320Z,18.90
2019-01-12T01:03:26.749Z,19.60
2019-01-12T01:05:56.229Z,19.33
2019-01-12T01:08:25.715Z,20.10
2019-01-12T01:11:02.667Z,20.87
2019-01-12T01:13:32.091Z,18.10
2019-01-12T01:16:01.572Z,19.57
2019-01-12T01:18:31.049Z,18.37
2019-01-12T01:21:00.468Z,18.07
2019-01-12T01:23:29.946Z,19.90
2019-01-12T01:25:59.403Z,19.70
2019-01-12T01:28:28.997Z,19.47
2019-01-12T01:30:58.453Z,19.30
2019-01-12T01:33:28.239Z,20.53
2019-01-12T01:35:57.826Z,20.73
2019-01-12T01:38:27.243Z,18.03
2019-01-12T01:40:56.644Z,20.00
2019-01-12T01:43:30.903Z,19.57
2019-01-12T01:46:00.373Z,20.80
2019-01-12T01:48:29.801Z,19.50
2019-01-12T01:50:59.278Z,19.37
2019-01-12T01:53:28.736Z,19.30
2019-01-12T01:55:58.185Z,17.17
2019-01-12T01:58:27.673Z,19.30
2019-01-12T02:00:58.257Z,18.43
2019-01-12T02:03:27.732Z,20.07
2019-01-12T02:05:57.181Z,19.87
2019-01-12T02:08:26.585Z,20.50
2019-01-12T02:10:56.028Z,20.77
2019-01-12T02:13:25.464Z,18.40
2019-01-12T02:15:55.001Z,19.30
2019-01-12T02:18:24.499Z,19.97
2019-01-12T02:20:53.949Z,20.00
2019-01-12T02:23:25.027Z,19.70
2019-01-12T02:25:54.454Z,18.87
2019-01-12T02:28:23.933Z,17.97
2019-01-12T02:30:53.413Z,16.50
2019-01-12T02:33:22.880Z,17.07
2019-01-12T02:35:52.318Z,17.43
2019-01-12T02:38:24.986Z,18.03
2019-01-12T02:40:55.655Z,17.10
2019-01-12T02:43:25.097Z,18.87
2019-01-12T02:45:56.147Z,17.47
2019-01-12T02:48:25.589Z,19.33
2019-01-12T02:50:55.012Z,21.00
2019-01-12T02:53:24.446Z,24.53
2019-01-12T02:55:53.996Z,30.10
2019-01-12T02:58:23.423Z,30.10
2019-01-12T03:00:52.972Z,32.00
2019-01-12T03:03:22.575Z,36.70
2019-01-12T03:05:51.988Z,33.70
2019-01-12T03:08:21.459Z,37.63
2019-01-12T03:10:50.919Z,34.13
2019-01-12T03:13:26.009Z,38.20
2019-01-12T03:15:55.511Z,38.30
2019-01-12T03:18:24.922Z,38.83
2019-01-12T03:20:54.350Z,39.63
2019-01-12T03:23:23.768Z,35.73
2019-01-12T03:25:53.226Z,37.97
2019-01-12T03:28:22.677Z,40.13
2019-01-12T03:30:52.183Z,39.10
2019-01-12T03:33:23.272Z,42.93
2019-01-12T03:35:52.833Z,43.60
2019-01-12T03:38:22.356Z,38.43
2019-01-12T03:40:51.789Z,40.43
2019-01-12T03:43:26.016Z,40.97
2019-01-12T03:45:59.150Z,42.77
2019-01-12T03:48:28.610Z,37.93
2019-01-12T03:50:58.133Z,39.13
2019-01-12T03:53:46.956Z,44.00
2019-01-12T03:56:16.425Z,44.20
2019-01-12T03:58:45.928Z,39.07
2019-01-12T04:01:15.351Z,38.80
2019-01-12T04:03:44.950Z,42.97
2019-01-12T04:06:14.390Z,35.37
2019-01-12T04:08:43.861Z,36.83
2019-01-12T04:11:13.364Z,39.20
2019-01-12T04:13:42.845Z,35.87
2019-01-12T04:16:12.345Z,38.63
2019-01-12T04:18:41.774Z,35.47
2019-01-12T04:21:30.627Z,36.50
2019-01-12T04:24:13.352Z,39.63
2019-01-12T04:26:42.771Z,37.20
2019-01-12T04:29:12.163Z,38.07
2019-01-12T04:32:00.955Z,33.40
2019-01-12T04:34:31.588Z,36.17
2019-01-12T04:37:01.008Z,33.30
2019-01-12T04:39:30.475Z,30.53
2019-01-12T04:41:59.954Z,30.10
2019-01-12T04:44:29.353Z,30.43
2019-01-12T04:46:58.791Z,31.57
2019-01-12T04:49:28.232Z,33.47
2019-01-12T04:51:57.856Z,31.07
2019-01-12T04:54:27.250Z,31.07
2019-01-12T04:56:56.699Z,32.40
2019-01-12T04:59:28.392Z,29.20
2019-01-12T05:01:57.847Z,28.40
2019-01-12T05:04:27.550Z,29.63
2019-01-12T05:06:56.978Z,29.27
2019-01-12T05:09:32.316Z,28.30
2019-01-12T05:12:04.677Z,25.10
2019-01-12T05:14:34.152Z,26.17
2019-01-12T05:17:03.575Z,26.90
2019-01-12T05:19:32.990Z,24.13
2019-01-12T05:22:02.548Z,23.87
2019-01-12T05:27:18.426Z,24.47
2019-01-12T05:29:47.957Z,23.60
2019-01-12T05:32:19.024Z,23.17
2019-01-12T05:34:48.489Z,22.67
2019-01-12T05:37:17.907Z,22.93
2019-01-12T05:39:47.559Z,22.77
2019-01-12T05:42:16.995Z,24.57
2019-01-12T05:44:49.702Z,23.00
2019-01-12T05:47:19.171Z,23.30
2019-01-12T05:49:48.698Z,23.00
2019-01-12T05:52:18.238Z,21.57
2019-01-12T05:54:47.666Z,19.00
2019-01-12T05:57:17.175Z,19.27
2019-01-12T05:59:48.209Z,20.30
2019-01-12T06:02:17.673Z,21.93
2019-01-12T06:05:02.953Z,21.83
2019-01-12T06:07:32.393Z,19.50
2019-01-12T06:10:01.817Z,19.23
2019-01-12T06:12:31.269Z,18.93
2019-01-12T06:15:00.769Z,18.03
2019-01-12T06:17:30.172Z,17.87
2019-01-12T06:19:59.639Z,16.90
2019-01-12T06:22:29.078Z,17.63
2019-01-12T06:24:58.485Z,16.40
2019-01-12T06:27:27.994Z,18.23
2019-01-12T06:29:58.796Z,17.10
2019-01-12T06:32:28.282Z,17.50
2019-01-12T06:34:57.689Z,18.03
2019-01-12T06:37:27.109Z,17.80
2019-01-12T06:39:56.555Z,18.63
2019-01-12T06:42:26.004Z,19.70
2019-01-12T06:44:56.562Z,17.87
2019-01-12T06:47:26.034Z,19.43
2019-01-12T06:49:55.459Z,18.47
2019-01-12T06:52:27.860Z,18.80
2019-01-12T06:54:57.277Z,20.03
2019-01-12T06:57:26.706Z,19.77
2019-01-12T06:59:56.178Z,22.40
2019-01-12T07:02:25.591Z,21.90
2019-01-12T07:04:55.084Z,22.63
2019-01-12T07:07:25.772Z,24.37
2019-01-12T07:09:55.235Z,24.57
2019-01-12T07:12:24.729Z,22.23
2019-01-12T07:14:54.174Z,23.17
2019-01-12T07:17:23.642Z,23.30
2019-01-12T07:19:57.149Z,22.60
2019-01-12T07:22:26.577Z,23.17
2019-01-12T07:24:55.996Z,21.07
2019-01-12T07:27:38.944Z,21.13
2019-01-12T07:30:11.528Z,21.70
2019-01-12T07:32:41.016Z,22.97
2019-01-12T07:35:23.569Z,22.50
2019-01-12T07:37:54.560Z,22.07
2019-01-12T07:40:24.046Z,23.27
2019-01-12T07:42:53.472Z,21.63
2019-01-12T07:45:22.902Z,21.67
2019-01-12T07:47:53.621Z,22.33
2019-01-12T07:50:23.096Z,22.40
2019-01-12T07:52:54.997Z,22.63
2019-01-12T07:55:24.437Z,22.30
2019-01-12T07:57:53.893Z,22.33
2019-01-12T08:00:23.464Z,24.13
2019-01-12T08:02:52.914Z,23.80
2019-01-12T08:05:22.458Z,25.30
2019-01-12T08:08:05.229Z,24.97
2019-01-12T08:10:34.666Z,26.57
2019-01-12T08:13:04.099Z,24.90
2019-01-12T08:15:33.544Z,26.57
2019-01-12T08:18:02.910Z,26.30
2019-01-12T08:20:51.718Z,28.13
2019-01-12T08:23:34.539Z,27.10
2019-01-12T08:26:23.346Z,26.83
2019-01-12T08:28:58.788Z,27.57
2019-01-12T08:31:28.204Z,27.80
2019-01-12T08:33:57.634Z,27.77
2019-01-12T08:36:29.199Z,25.93
2019-01-12T08:38:58.649Z,24.70
2019-01-12T08:41:28.066Z,25.70
2019-01-12T08:43:57.532Z,26.23
2019-01-12T08:46:26.965Z,25.60
2019-01-12T08:48:56.442Z,26.83
2019-01-12T08:51:25.978Z,27.63
2019-01-12T08:53:55.397Z,27.23
2019-01-12T08:56:24.958Z,29.30
2019-01-12T08:58:54.394Z,28.37
2019-01-12T09:01:23.911Z,29.27
2019-01-12T09:03:53.384Z,29.80
2019-01-12T09:06:24.710Z,30.47
2019-01-12T09:08:54.607Z,29.87
2019-01-12T09:11:24.067Z,30.30
2019-01-12T09:13:55.073Z,30.93
2019-01-12T09:16:24.493Z,29.77
2019-01-12T09:18:53.928Z,29.50
2019-01-12T09:21:23.389Z,29.57
2019-01-12T09:23:53.639Z,28.53
2019-01-12T09:26:23.087Z,28.20
2019-01-12T09:28:52.485Z,27.60
2019-01-12T09:31:21.912Z,28.40
2019-01-12T09:34:04.121Z,26.33
2019-01-12T09:36:36.380Z,28.30
2019-01-12T09:39:06.977Z,27.23
2019-01-12T09:41:36.446Z,28.77
2019-01-12T09:44:05.869Z,27.57
2019-01-12T09:46:35.306Z,27.53
2019-01-12T09:49:06.320Z,27.10
2019-01-12T09:51:55.247Z,27.87
2019-01-12T09:54:24.672Z,28.33
2019-01-12T09:56:55.838Z,28.83
2019-01-12T09:59:31.444Z,28.03
2019-01-12T10:02:00.918Z,27.27
2019-01-12T10:04:30.362Z,27.70
2019-01-12T10:07:19.279Z,29.37
2019-01-12T10:09:49.866Z,27.60
2019-01-12T10:12:19.555Z,28.53
2019-01-12T10:14:49.084Z,29.47
2019-01-12T10:17:37.893Z,27.27
2019-01-12T10:20:10.480Z,27.27
2019-01-12T10:22:39.980Z,28.20
2019-01-12T10:25:10.150Z,26.50
2019-01-12T10:27:39.703Z,27.20
2019-01-12T10:30:14.173Z,28.60
2019-01-12T10:32:43.624Z,26.30
2019-01-12T10:35:13.170Z,28.97
2019-01-12T10:37:42.737Z,28.00
2019-01-12T10:40:14.687Z,27.97
2019-01-12T10:42:50.760Z,26.97
2019-01-12T10:45:21.713Z,27.73
2019-01-12T10:47:51.245Z,26.93
2019-01-12T10:50:24.667Z,28.13
2019-01-12T10:52:55.718Z,28.43
2019-01-12T10:55:25.142Z,25.90
2019-01-12T10:58:07.865Z,26.93
2019-01-12T11:00:50.240Z,26.87
2019-01-12T11:03:19.786Z,25.37
2019-01-12T11:06:08.628Z,26.30
2019-01-12T11:08:39.660Z,24.73
2019-01-12T11:11:10.837Z,25.93
2019-01-12T11:13:40.406Z,25.97
2019-01-12T11:16:12.260Z,25.23
2019-01-12T11:18:53.955Z,26.37
2019-01-12T11:21:26.237Z,25.73
2019-01-12T11:23:57.311Z,25.63
2019-01-12T11:26:26.715Z,27.07
2019-01-12T11:28:56.236Z,26.33
2019-01-12T11:31:25.683Z,27.90
2019-01-12T11:33:55.110Z,27.37
2019-01-12T11:36:24.592Z,27.63
2019-01-12T11:38:54.044Z,28.93
2019-01-12T11:41:23.461Z,25.47
2019-01-12T11:43:52.884Z,27.50
2019-01-12T11:46:22.313Z,27.13
2019-01-12T11:48:51.771Z,30.43
2019-01-12T11:51:21.209Z,30.00
2019-01-12T11:53:50.728Z,27.90
2019-01-12T11:56:20.116Z,27.83
2019-01-12T11:58:49.596Z,28.03
2019-01-12T12:01:19.014Z,27.17
2019-01-12T12:03:48.431Z,26.53
2019-01-12T12:06:37.276Z,28.00
2019-01-12T12:09:07.503Z,25.30
2019-01-12T12:11:39.747Z,25.33
2019-01-12T12:14:25.884Z,26.07
2019-01-12T12:16:55.322Z,25.10
2019-01-12T12:19:24.772Z,24.57
2019-01-12T12:21:54.283Z,24.27
2019-01-12T12:24:23.869Z,22.93
2019-01-12T12:26:54.835Z,25.37
2019-01-12T12:29:24.233Z,23.67
2019-01-12T12:31:53.743Z,24.40
2019-01-12T12:34:39.213Z,24.37
2019-01-12T12:37:08.740Z,24.97
2019-01-12T12:39:38.241Z,23.07
2019-01-12T12:42:07.682Z,23.27
2019-01-12T12:44:37.135Z,25.70
2019-01-12T12:47:25.957Z,23.67
2019-01-12T12:49:55.513Z,22.17
2019-01-12T12:52:38.999Z,22.63
2019-01-12T12:55:09.278Z,21.00
2019-01-12T12:57:43.588Z,22.37
2019-01-12T13:00:16.276Z,21.80
2019-01-12T13:02:45.743Z,22.63
2019-01-12T13:05:15.188Z,20.00
2019-01-12T13:07:44.608Z,20.87
2019-01-12T13:10:17.250Z,20.53
2019-01-12T13:12:48.845Z,21.83
2019-01-12T13:15:18.321Z,21.13
2019-01-12T13:17:47.839Z,21.43
2019-01-12T13:20:20.416Z,19.20
2019-01-12T13:23:09.299Z,22.43
2019-01-12T13:25:38.762Z,20.53
2019-01-12T13:28:09.755Z,21.23
2019-01-12T13:30:40.773Z,21.20
2019-01-12T13:33:10.181Z,19.00
2019-01-12T13:35:39.610Z,21.33
2019-01-12T13:38:09.118Z,22.40
2019-01-12T13:40:38.627Z,19.17
2019-01-12T13:43:08.135Z,18.13
2019-01-12T13:45:51.080Z,19.17
2019-01-12T13:48:20.502Z,18.20
2019-01-12T13:50:50.030Z,18.63
2019-01-12T13:53:19.512Z,18.67
2019-01-12T13:55:48.946Z,17.87
2019-01-12T13:58:18.336Z,17.63
2019-01-12T14:00:47.804Z,16.83
2019-01-12T14:03:17.273Z,17.73
2019-01-12T14:05:46.694Z,18.33
2019-01-12T14:08:16.139Z,18.63
2019-01-12T14:10:45.596Z,19.63
2019-01-12T14:13:28.851Z,18.27
2019-01-12T14:15:58.335Z,20.90
2019-01-12T14:18:27.812Z,17.83
2019-01-12T14:20:57.269Z,21.33
2019-01-12T14:23:26.709Z,19.40
2019-01-12T14:25:56.234Z,16.97
2019-01-12T14:28:25.711Z,16.10
2019-01-12T14:30:55.127Z,16.83
2019-01-12T14:33:24.619Z,16.53
2019-01-12T14:35:54.000Z,17.13
2019-01-12T14:38:23.529Z,17.37
2019-01-12T14:41:01.128Z,16.77
2019-01-12T14:43:30.538Z,16.80
2019-01-12T14:46:00.042Z,15.83
2019-01-12T14:48:34.361Z,16.23
2019-01-12T14:51:03.946Z,15.63
2019-01-12T14:53:34.969Z,16.90
2019-01-12T14:56:04.417Z,15.17
2019-01-12T14:58:33.967Z,15.03
2019-01-12T15:01:03.403Z,15.13
2019-01-12T15:03:32.852Z,15.57
2019-01-12T15:06:02.455Z,14.13
2019-01-12T15:08:31.920Z,12.30
2019-01-12T15:11:01.420Z,14.33
2019-01-12T15:13:31.011Z,13.80
2019-01-12T15:16:00.424Z,15.37
2019-01-12T15:18:29.833Z,15.10
2019-01-12T15:20:59.282Z,15.90
2019-01-12T15:23:28.742Z,14.67
2019-01-12T15:25:58.188Z,16.37
2019-01-12T15:28:27.595Z,15.67
2019-01-12T15:30:57.048Z,15.83
2019-01-12T15:33:28.377Z,15.50
2019-01-12T15:35:58.065Z,15.30
2019-01-12T15:38:27.509Z,16.20
2019-01-12T15:40:59.237Z,16.67
2019-01-12T15:43:31.739Z,18.33
2019-01-12T15:46:01.303Z,17.47
2019-01-12T15:48:30.725Z,17.37
2019-01-12T15:51:00.114Z,17.67
2019-01-12T15:53:29.561Z,17.03
2019-01-12T15:55:58.977Z,18.43
2019-01-12T15:58:28.384Z,18.97
2019-01-12T16:00:58.340Z,20.00
2019-01-12T16:03:27.780Z,18.90
2019-01-12T16:05:58.781Z,18.30
2019-01-12T16:08:28.243Z,18.07
2019-01-12T16:10:57.666Z,18.87
2019-01-12T16:13:32.336Z,20.17
2019-01-12T16:16:01.840Z,19.43
2019-01-12T16:18:31.272Z,20.30
2019-01-12T16:21:00.693Z,19.30
2019-01-12T16:23:31.739Z,18.87
2019-01-12T16:26:01.193Z,21.17
2019-01-12T16:28:30.666Z,26.13
2019-01-12T16:31:00.164Z,23.70
2019-01-12T16:33:29.583Z,23.93
2019-01-12T16:35:59.039Z,24.27
2019-01-12T16:38:28.523Z,24.67
2019-01-12T16:40:57.921Z,25.53
2019-01-12T16:43:27.430Z,24.23
2019-01-12T16:45:56.854Z,23.83
2019-01-12T16:48:26.293Z,22.00
2019-01-12T16:50:55.722Z,23.53
2019-01-12T16:53:25.218Z,22.10
2019-01-12T16:56:08.091Z,21.50
2019-01-12T16:58:37.574Z,21.53
2019-01-12T17:01:06.999Z,21.47
2019-01-12T17:03:36.451Z,20.67
2019-01-12T17:06:05.901Z,19.63
2019-01-12T17:08:35.309Z,19.00
2019-01-12T17:11:09.690Z,19.47
2019-01-12T17:13:40.130Z,20.43
2019-01-12T17:16:11.046Z,19.47
2019-01-12T17:18:40.497Z,18.90
2019-01-12T17:21:22.710Z,21.07
2019-01-12T17:23:52.320Z,21.60
2019-01-12T17:26:21.767Z,23.00
2019-01-12T17:28:51.256Z,22.93
2019-01-12T17:31:21.025Z,21.73
2019-01-12T17:33:50.538Z,22.53
2019-01-12T17:36:19.980Z,22.63
2019-01-12T17:38:54.168Z,21.87
2019-01-12T17:41:36.687Z,22.53
2019-01-12T17:44:06.187Z,20.57
2019-01-12T17:46:41.574Z,19.97
2019-01-12T17:49:11.026Z,21.17
2019-01-12T17:51:40.554Z,18.17
2019-01-12T17:54:09.984Z,19.93
2019-01-12T17:56:39.449Z,18.50
2019-01-12T17:59:08.899Z,17.20
2019-01-12T18:01:38.460Z,13.30
2019-01-12T18:04:07.882Z,16.23
2019-01-12T18:06:37.320Z,17.33
2019-01-12T18:09:07.078Z,14.93
2019-01-12T18:11:36.528Z,18.20
2019-01-12T18:14:06.046Z,18.13
2019-01-12T18:16:36.603Z,18.23
2019-01-12T18:19:06.072Z,18.27
2019-01-12T18:21:35.510Z,17.27
2019-01-12T18:24:07.430Z,18.03
2019-01-12T18:26:36.901Z,17.47
2019-01-12T18:29:07.916Z,14.60
2019-01-12T18:31:37.344Z,13.30
2019-01-12T18:34:06.767Z,11.27
2019-01-12T18:36:36.201Z,10.27
2019-01-12T18:39:07.269Z,9.23
2019-01-12T18:41:49.788Z,8.30
2019-01-12T18:44:20.795Z,8.57
2019-01-12T18:46:55.103Z,8.40
2019-01-12T18:49:24.663Z,7.63
2019-01-12T18:51:54.092Z,6.90
2019-01-12T18:54:23.540Z,6.93
2019-01-12T18:56:55.825Z,7.37
2019-01-12T18:59:25.246Z,7.20
2019-01-12T19:01:54.686Z,7.10
2019-01-12T19:04:24.114Z,6.90
2019-01-12T19:06:53.521Z,7.07
2019-01-12T19:09:42.409Z,7.03
2019-01-12T19:12:11.861Z,8.70
2019-01-12T19:14:41.265Z,7.53
2019-01-12T19:17:13.394Z,7.20
2019-01-12T19:19:45.684Z,8.60
2019-01-12T19:22:15.155Z,8.30
2019-01-12T19:24:44.579Z,8.17
2019-01-12T19:27:28.759Z,8.33
2019-01-12T19:29:58.221Z,8.47
2019-01-12T19:32:28.360Z,8.70
2019-01-12T19:35:04.961Z,10.00
2019-01-12T19:37:35.170Z,9.10
2019-01-12T19:40:07.905Z,9.77
2019-01-12T19:42:37.381Z,10.93
2019-01-12T19:45:09.217Z,10.07
2019-01-12T19:47:38.689Z,10.80
2019-01-12T19:50:11.916Z,12.07
2019-01-12T19:52:41.333Z,12.23
2019-01-12T19:55:10.800Z,11.57
2019-01-12T19:57:40.236Z,11.97
2019-01-12T20:00:13.285Z,11.80
2019-01-12T20:02:42.773Z,12.57
2019-01-12T20:05:12.181Z,11.30
2019-01-12T20:08:01.010Z,11.63
2019-01-12T20:10:30.497Z,12.43
2019-01-12T20:12:59.950Z,13.20
2019-01-12T20:15:29.365Z,12.43
2019-01-12T20:18:00.086Z,12.93
2019-01-12T20:20:29.661Z,11.60
2019-01-12T20:23:01.846Z,12.60
2019-01-12T20:25:31.283Z,12.93
2019-01-12T20:28:00.697Z,12.83
2019-01-12T20:33:15.743Z,13.33
2019-01-12T20:35:48.312Z,13.60
2019-01-12T20:38:20.991Z,15.17
2019-01-12T20:40:54.278Z,14.43
2019-01-12T20:43:26.867Z,17.20
2019-01-12T20:46:05.408Z,15.40
2019-01-12T20:48:38.006Z,14.70
2019-01-12T20:51:10.556Z,15.87
2019-01-12T20:53:43.249Z,13.73
2019-01-12T20:56:18.219Z,14.67
2019-01-12T20:58:50.136Z,14.53
2019-01-12T21:01:22.695Z,14.47
2019-01-12T21:03:55.285Z,13.27
2019-01-12T21:06:27.922Z,13.70
2019-01-12T21:09:05.147Z,15.53
2019-01-12T21:11:36.511Z,14.43
2019-01-12T21:14:09.118Z,15.50
2019-01-12T21:16:38.647Z,17.30
2019-01-12T21:19:09.914Z,15.17
2019-01-12T21:21:39.344Z,15.67
2019-01-12T21:24:08.749Z,14.30
2019-01-12T21:26:39.788Z,14.87
2019-01-12T21:29:09.275Z,13.70
2019-01-12T21:31:38.751Z,13.80
2019-01-12T21:34:08.242Z,14.43
2019-01-12T21:36:37.720Z,13.13
2019-01-12T21:39:09.780Z,13.13
2019-01-12T21:41:39.238Z,13.30
2019-01-12T21:44:09.737Z,13.47
2019-01-12T21:46:39.214Z,14.03
2019-01-12T21:49:08.669Z,12.40
2019-01-12T21:51:38.071Z,13.60
2019-01-12T21:54:07.579Z,12.77
2019-01-12T21:56:36.998Z,12.57
2019-01-12T21:59:06.814Z,13.20
2019-01-12T22:01:36.437Z,14.13
2019-01-12T22:04:06.026Z,14.40
2019-01-12T22:06:35.462Z,14.80
2019-01-12T22:09:07.785Z,14.43
2019-01-12T22:11:38.174Z,15.07
2019-01-12T22:14:07.564Z,14.63
2019-01-12T22:16:37.087Z,14.53
2019-01-12T22:19:06.473Z,14.67
2019-01-12T22:21:38.191Z,14.80
2019-01-12T22:24:07.601Z,15.57
2019-01-12T22:26:37.858Z,16.17
2019-01-12T22:29:07.311Z,14.87
2019-01-12T22:31:36.684Z,14.57
2019-01-12T22:34:07.796Z,15.27
2019-01-12T22:36:55.751Z,15.27
2019-01-12T22:39:25.175Z,14.57
2019-01-12T22:41:57.347Z,15.27
2019-01-12T22:44:26.749Z,15.17
2019-01-12T22:46:56.154Z,15.40
2019-01-12T22:49:26.340Z,14.13
2019-01-12T22:51:55.865Z,15.33
2019-01-12T22:54:25.299Z,16.17
2019-01-12T22:56:54.728Z,15.63
2019-01-12T22:59:24.156Z,15.70
2019-01-12T23:02:13.035Z,16.47
2019-01-12T23:04:42.522Z,16.27
2019-01-12T23:07:11.954Z,16.43
2019-01-12T23:09:41.362Z,16.10
2019-01-12T23:12:10.889Z,16.30
2019-01-12T23:14:40.333Z,16.03
2019-01-12T23:17:09.797Z,16.93
2019-01-12T23:19:44.392Z,16.47
2019-01-12T23:22:13.871Z,16.40
2019-01-12T23:24:57.153Z,16.37
2019-01-12T23:27:26.603Z,17.33
2019-01-12T23:29:56.123Z,17.17
2019-01-12T23:32:25.650Z,16.80
2019-01-12T23:34:55.135Z,17.17
2019-01-12T23:37:24.592Z,16.33
2019-01-12T23:39:54.031Z,18.50
2019-01-12T23:42:23.502Z,17.70
2019-01-12T23:44:52.980Z,17.13
2019-01-12T23:47:22.382Z,17.70
2019-01-12T23:49:51.793Z,16.13
2019-01-12T23:52:21.256Z,16.47
2019-01-12T23:54:50.709Z,18.13
2019-01-12T23:57:20.108Z,16.20
2019-01-12T23:59:49.646Z,18.33
